createdAt,value
2019-04-22T00:01:25.904Z,9.89
2019-04-22T00:04:04.860Z,9.85
2019-04-22T00:06:51.595Z,9.87
2019-04-22T00:09:30.968Z,9.96
2019-04-22T00:12:06.366Z,10.13
2019-04-22T00:14:30.797Z,10.08
2019-04-22T00:17:30.097Z,9.88
2019-04-22T00:19:45.675Z,9.92
2019-04-22T00:22:22.178Z,9.92
2019-04-22T00:24:52.905Z,9.86
2019-04-22T00:27:28.212Z,9.96
2019-04-22T00:32:30.590Z,9.86
2019-04-22T00:35:07.140Z,9.93
2019-04-22T00:37:46.256Z,10.00
2019-04-22T00:40:14.901Z,9.49
2019-04-22T00:42:50.305Z,9.29
2019-04-22T00:45:39.988Z,9.42
2019-04-22T00:47:50.368Z,9.26
2019-04-22T00:53:04.520Z,9.21
2019-04-22T00:55:39.175Z,9.19
2019-04-22T00:58:14.215Z,9.58
2019-04-22T01:00:49.347Z,9.64
2019-04-22T01:03:20.699Z,9.14
2019-04-22T01:05:46.841Z,9.01
2019-04-22T01:08:36.689Z,9.13
2019-04-22T01:11:06.221Z,9.75
2019-04-22T01:13:34.685Z,9.78
2019-04-22T01:16:09.479Z,9.26
2019-04-22T01:18:38.000Z,9.05
2019-04-22T01:21:24.372Z,9.00
2019-04-22T01:23:41.163Z,8.96
2019-04-22T01:26:15.942Z,8.92
2019-04-22T01:28:46.170Z,9.54
2019-04-22T01:31:13.530Z,9.02
2019-04-22T01:33:47.650Z,8.79
2019-04-22T01:36:30.164Z,8.66
2019-04-22T01:39:10.436Z,8.67
2019-04-22T01:44:27.876Z,8.78
2019-04-22T01:49:27.566Z,9.40
2019-04-22T01:57:06.240Z,8.48
2019-04-22T01:59:31.510Z,8.57
2019-04-22T02:02:19.140Z,8.67
2019-04-22T02:05:10.613Z,8.66
2019-04-22T02:07:26.268Z,8.41
2019-04-22T02:09:59.821Z,8.62
2019-04-22T02:12:29.854Z,8.42
2019-04-22T02:14:58.067Z,8.67
2019-04-22T02:17:38.288Z,8.38
2019-04-22T02:23:33.535Z,8.75
2019-04-22T02:25:59.315Z,8.66
2019-04-22T02:28:34.000Z,8.61
2019-04-22T02:46:40.745Z,9.07
2019-04-22T02:49:04.211Z,9.09
2019-04-22T02:51:32.645Z,9.03
2019-04-22T02:54:27.446Z,9.07
2019-04-22T02:56:31.951Z,9.02
2019-04-22T03:06:39.778Z,8.62
2019-04-22T03:12:02.743Z,9.12
2019-04-22T03:14:46.008Z,9.21
2019-04-22T03:17:03.139Z,8.78
2019-04-22T03:19:57.233Z,8.78
2019-04-22T03:22:16.592Z,8.31
2019-04-22T03:24:53.876Z,8.27
2019-04-22T03:37:53.053Z,8.51
2019-04-22T03:48:04.336Z,9.29
2019-04-22T03:55:43.352Z,9.92
2019-04-22T03:58:18.148Z,10.10
2019-04-22T04:03:19.317Z,11.15
2019-04-22T04:08:33.394Z,11.16
2019-04-22T04:10:57.570Z,11.25
2019-04-22T04:13:41.648Z,11.59
2019-04-22T04:16:10.841Z,11.88
2019-04-22T04:19:07.757Z,12.26
2019-04-22T04:24:19.896Z,12.63
2019-04-22T04:26:45.886Z,12.64
2019-04-22T04:29:13.752Z,12.76
2019-04-22T04:36:42.173Z,13.61
2019-04-22T04:41:59.614Z,13.72
2019-04-22T04:44:22.770Z,13.93
2019-04-22T04:47:06.036Z,14.54
2019-04-22T04:54:41.463Z,15.01
2019-04-22T04:57:05.161Z,15.20
2019-04-22T05:02:19.758Z,15.04
2019-04-22T05:07:33.662Z,15.14
2019-04-22T05:09:59.714Z,15.29
2019-04-22T05:15:03.942Z,15.58
2019-04-22T05:17:35.611Z,15.77
2019-04-22T05:20:13.375Z,15.94
2019-04-22T05:22:39.714Z,16.04
2019-04-22T05:25:15.044Z,16.16
2019-04-22T05:32:49.098Z,16.45
2019-04-22T05:35:26.681Z,16.28
2019-04-22T05:38:02.884Z,16.59
2019-04-22T05:40:28.031Z,16.60
2019-04-22T05:43:05.672Z,16.93
2019-04-22T05:45:40.345Z,17.09
2019-04-22T05:48:15.007Z,17.40
2019-04-22T05:50:45.191Z,17.70
2019-04-22T05:53:14.924Z,18.08
2019-04-22T05:55:56.906Z,18.32
2019-04-22T05:58:32.930Z,18.32
2019-04-22T06:03:46.610Z,19.06
2019-04-22T06:08:51.276Z,20.24
2019-04-22T06:11:28.472Z,23.24
2019-04-22T06:13:59.190Z,23.24
2019-04-22T06:16:40.205Z,23.88
2019-04-22T06:19:21.550Z,24.51
2019-04-22T06:21:41.817Z,24.97
2019-04-22T06:24:26.015Z,25.07
2019-04-22T06:27:01.579Z,24.29
2019-04-22T06:29:23.715Z,24.27
2019-04-22T06:32:19.854Z,24.94
2019-04-22T06:34:30.755Z,25.31
2019-04-22T06:37:07.296Z,25.31
2019-04-22T06:42:16.373Z,24.73
2019-04-22T06:44:47.932Z,24.00
2019-04-22T06:47:38.023Z,23.96
2019-04-22T06:49:52.605Z,23.79
2019-04-22T06:54:59.452Z,22.38
2019-04-22T06:57:30.253Z,21.81
2019-04-22T07:00:05.653Z,21.86
2019-04-22T07:02:46.377Z,21.50
2019-04-22T07:05:08.313Z,20.72
2019-04-22T07:07:45.568Z,20.57
2019-04-22T07:10:35.036Z,20.78
2019-04-22T07:12:52.326Z,20.78
2019-04-22T07:15:36.983Z,20.63
2019-04-22T07:23:10.585Z,19.97
2019-04-22T07:25:41.372Z,19.97
2019-04-22T07:28:11.228Z,19.72
2019-04-22T07:30:51.215Z,20.04
2019-04-22T07:36:19.528Z,19.85
2019-04-22T07:40:56.224Z,19.56
2019-04-22T07:46:07.175Z,20.28
2019-04-22T07:51:13.401Z,19.90
2019-04-22T07:53:50.860Z,20.23
2019-04-22T07:56:18.459Z,20.44
2019-04-22T07:58:58.584Z,20.56
2019-04-22T08:01:26.610Z,20.41
2019-04-22T08:04:13.168Z,20.81
2019-04-22T08:06:36.200Z,20.70
2019-04-22T08:09:13.971Z,20.79
2019-04-22T08:14:14.643Z,21.51
2019-04-22T08:16:51.355Z,21.03
2019-04-22T08:19:28.126Z,20.70
2019-04-22T08:21:56.305Z,20.72
2019-04-22T08:24:35.969Z,20.49
2019-04-22T08:27:04.489Z,20.31
2019-04-22T08:30:00.105Z,20.59
2019-04-22T08:32:28.419Z,20.60
2019-04-22T08:34:42.541Z,20.02
2019-04-22T08:37:41.506Z,20.77
2019-04-22T08:39:49.977Z,20.70
2019-04-22T08:42:35.404Z,20.77
2019-04-22T08:47:30.891Z,21.31
2019-04-22T08:52:41.962Z,21.48
2019-04-22T08:58:04.905Z,21.39
2019-04-22T09:00:20.353Z,21.45
2019-04-22T09:02:56.356Z,20.94
2019-04-22T09:05:46.020Z,20.30
2019-04-22T09:08:09.491Z,20.59
2019-04-22T09:10:39.323Z,21.19
2019-04-22T09:15:45.511Z,20.80
2019-04-22T09:18:24.706Z,21.38
2019-04-22T09:21:01.137Z,20.97
2019-04-22T09:25:57.583Z,20.70
2019-04-22T09:28:31.150Z,20.58
2019-04-22T09:31:06.821Z,20.70
2019-04-22T09:33:36.912Z,20.74
2019-04-22T09:36:16.570Z,20.48
2019-04-22T09:38:41.752Z,20.93
2019-04-22T09:41:22.218Z,20.81
2019-04-22T09:43:52.167Z,20.82
2019-04-22T09:46:32.836Z,20.82
2019-04-22T09:51:31.163Z,20.98
2019-04-22T09:54:19.764Z,20.97
2019-04-22T09:59:18.771Z,21.19
2019-04-22T10:01:40.985Z,21.44
2019-04-22T10:04:11.335Z,21.43
2019-04-22T10:06:45.643Z,21.12
2019-04-22T10:11:58.697Z,21.28
2019-04-22T10:17:07.809Z,21.51
2019-04-22T10:19:43.909Z,21.68
2019-04-22T10:22:20.034Z,21.39
2019-04-22T10:24:45.004Z,21.64
2019-04-22T10:27:20.854Z,21.08
2019-04-22T10:32:27.998Z,21.31
2019-04-22T10:34:45.846Z,21.10
2019-04-22T10:37:15.208Z,21.04
2019-04-22T10:39:54.106Z,21.26
2019-04-22T10:42:20.818Z,21.25
2019-04-22T10:44:53.800Z,21.15
2019-04-22T10:47:25.838Z,21.14
2019-04-22T10:49:58.285Z,21.65
2019-04-22T10:52:29.933Z,21.50
2019-04-22T10:55:03.398Z,21.63
2019-04-22T10:57:36.212Z,21.23
2019-04-22T11:00:09.698Z,21.25
2019-04-22T11:02:41.575Z,20.71
2019-04-22T11:05:14.431Z,21.19
2019-04-22T11:07:51.963Z,21.73
2019-04-22T11:10:35.482Z,21.61
2019-04-22T11:12:54.599Z,21.49
2019-04-22T11:15:26.669Z,21.64
2019-04-22T11:17:59.727Z,21.51
2019-04-22T11:20:33.759Z,21.40
2019-04-22T11:23:06.850Z,21.44
2019-04-22T11:25:39.546Z,21.07
2019-04-22T11:28:11.821Z,21.24
2019-04-22T11:30:44.614Z,21.83
2019-04-22T11:33:16.478Z,21.54
2019-04-22T11:35:48.386Z,21.41
2019-04-22T11:38:20.436Z,21.50
2019-04-22T11:40:55.501Z,21.37
2019-04-22T11:43:26.209Z,22.26
2019-04-22T11:45:59.573Z,22.36
2019-04-22T11:48:31.482Z,21.40
2019-04-22T11:51:04.394Z,21.58
2019-04-22T11:53:36.593Z,22.17
2019-04-22T11:56:08.978Z,22.18
2019-04-22T11:58:40.872Z,22.12
2019-04-22T12:01:13.143Z,22.06
2019-04-22T12:03:46.278Z,22.39
2019-04-22T12:06:19.882Z,22.33
2019-04-22T12:08:51.978Z,22.39
2019-04-22T12:11:26.158Z,22.24
2019-04-22T12:13:57.963Z,22.23
2019-04-22T12:16:30.042Z,22.56
2019-04-22T12:19:03.050Z,22.98
2019-04-22T12:21:35.258Z,22.71
2019-04-22T12:24:06.959Z,22.28
2019-04-22T12:26:40.069Z,22.52
2019-04-22T12:29:13.080Z,22.69
2019-04-22T12:31:45.234Z,22.75
2019-04-22T12:34:17.377Z,22.70
2019-04-22T12:36:51.077Z,22.74
2019-04-22T12:39:23.249Z,22.65
2019-04-22T12:41:56.171Z,22.82
2019-04-22T12:44:30.501Z,22.54
2019-04-22T12:47:04.376Z,22.93
2019-04-22T12:49:38.328Z,23.10
2019-04-22T12:52:10.459Z,22.17
2019-04-22T12:54:42.650Z,22.13
2019-04-22T12:57:14.784Z,21.82
2019-04-22T12:59:47.784Z,22.65
2019-04-22T13:02:20.910Z,22.64
2019-04-22T13:04:54.369Z,22.36
2019-04-22T13:07:26.177Z,21.90
2019-04-22T13:09:59.243Z,22.18
2019-04-22T13:12:31.136Z,22.26
2019-04-22T13:15:05.956Z,22.21
2019-04-22T13:17:37.961Z,22.03
2019-04-22T13:20:14.422Z,22.28
2019-04-22T13:22:45.059Z,22.49
2019-04-22T13:25:20.699Z,22.30
2019-04-22T13:27:53.297Z,22.75
2019-04-22T13:30:26.400Z,22.43
2019-04-22T13:32:58.726Z,22.57
2019-04-22T13:35:31.842Z,22.34
2019-04-22T13:38:04.774Z,22.68
2019-04-22T13:40:37.147Z,22.51
2019-04-22T13:43:09.158Z,22.63
2019-04-22T13:45:40.905Z,22.10
2019-04-22T13:48:35.901Z,22.30
2019-04-22T13:51:18.617Z,22.16
2019-04-22T13:56:15.378Z,22.84
2019-04-22T13:58:42.368Z,22.57
2019-04-22T14:01:14.672Z,22.78
2019-04-22T14:03:56.500Z,23.28
2019-04-22T14:06:29.220Z,23.18
2019-04-22T14:09:03.222Z,23.12
2019-04-22T14:11:47.450Z,23.03
2019-04-22T14:14:10.975Z,22.28
2019-04-22T14:16:44.804Z,23.28
2019-04-22T14:19:18.391Z,23.64
2019-04-22T14:21:51.233Z,23.64
2019-04-22T14:24:23.826Z,23.16
2019-04-22T14:27:13.214Z,23.67
2019-04-22T14:29:29.321Z,24.23
2019-04-22T14:32:09.266Z,24.66
2019-04-22T14:34:34.636Z,24.17
2019-04-22T14:37:06.396Z,23.56
2019-04-22T14:39:38.256Z,23.49
2019-04-22T14:42:33.452Z,23.58
2019-04-22T14:45:19.036Z,23.89
2019-04-22T14:47:41.054Z,23.99
2019-04-22T14:50:14.351Z,23.19
2019-04-22T14:52:49.160Z,23.34
2019-04-22T14:55:06.065Z,23.26
2019-04-22T14:57:32.296Z,22.75
2019-04-22T15:00:11.520Z,22.99
2019-04-22T15:02:43.919Z,22.67
2019-04-22T15:05:16.426Z,23.00
2019-04-22T15:07:48.072Z,23.37
2019-04-22T15:10:22.210Z,23.31
2019-04-22T15:12:58.470Z,23.43
2019-04-22T15:15:29.331Z,23.08
2019-04-22T15:18:19.869Z,22.74
2019-04-22T15:21:02.725Z,21.89
2019-04-22T15:23:34.865Z,22.08
2019-04-22T15:26:06.834Z,21.44
2019-04-22T15:28:39.608Z,22.07
2019-04-22T15:31:11.297Z,21.84
2019-04-22T15:33:47.962Z,21.86
2019-04-22T15:36:18.038Z,21.80
2019-04-22T15:38:51.322Z,21.77
2019-04-22T15:41:23.026Z,21.91
2019-04-22T15:43:54.686Z,21.94
2019-04-22T15:46:27.736Z,21.87
2019-04-22T15:49:00.029Z,21.88
2019-04-22T15:51:32.097Z,22.41
2019-04-22T15:54:05.465Z,21.73
2019-04-22T15:56:37.131Z,21.78
2019-04-22T15:59:28.731Z,21.71
2019-04-22T16:01:44.868Z,21.65
2019-04-22T16:04:17.049Z,21.66
2019-04-22T16:06:49.374Z,21.64
2019-04-22T16:09:22.782Z,21.56
2019-04-22T16:11:54.550Z,21.43
2019-04-22T16:14:32.822Z,21.34
2019-04-22T16:17:00.892Z,21.34
2019-04-22T16:19:32.989Z,21.09
2019-04-22T16:22:09.552Z,21.14
2019-04-22T16:24:56.393Z,20.90
2019-04-22T16:27:30.181Z,20.29
2019-04-22T16:30:03.424Z,20.38
2019-04-22T16:32:36.944Z,20.48
2019-04-22T16:35:10.535Z,20.55
2019-04-22T16:37:42.938Z,20.41
2019-04-22T16:40:14.849Z,20.37
2019-04-22T16:42:54.587Z,19.97
2019-04-22T16:45:20.023Z,20.07
2019-04-22T16:47:53.698Z,19.91
2019-04-22T16:50:25.373Z,19.66
2019-04-22T16:52:57.879Z,19.76
2019-04-22T16:55:30.770Z,19.71
2019-04-22T16:58:03.144Z,19.80
2019-04-22T17:00:36.453Z,19.74
2019-04-22T17:03:28.970Z,19.73
2019-04-22T17:06:05.528Z,19.62
2019-04-22T17:08:37.294Z,19.32
2019-04-22T17:11:09.703Z,19.16
2019-04-22T17:13:42.477Z,18.99
2019-04-22T17:16:15.984Z,18.85
2019-04-22T17:18:47.993Z,18.70
2019-04-22T17:21:19.855Z,18.44
2019-04-22T17:23:51.844Z,18.26
2019-04-22T17:26:26.359Z,18.09
2019-04-22T17:29:02.419Z,17.90
2019-04-22T17:31:31.651Z,17.74
2019-04-22T17:34:04.717Z,17.60
2019-04-22T17:36:38.308Z,17.49
2019-04-22T17:39:22.832Z,17.37
2019-04-22T17:42:03.496Z,17.29
2019-04-22T17:44:42.606Z,17.23
2019-04-22T17:47:13.857Z,17.06
2019-04-22T17:49:55.256Z,16.94
2019-04-22T17:52:25.191Z,16.86
2019-04-22T17:55:00.878Z,16.75
2019-04-22T17:57:32.683Z,16.67
2019-04-22T18:00:10.064Z,16.57
2019-04-22T18:02:32.337Z,16.47
2019-04-22T18:04:59.336Z,16.40
2019-04-22T18:07:49.074Z,16.32
2019-04-22T18:10:35.654Z,16.23
2019-04-22T18:13:07.452Z,16.16
2019-04-22T18:15:29.381Z,16.07
2019-04-22T18:18:06.854Z,16.01
2019-04-22T18:20:30.443Z,15.96
2019-04-22T18:23:00.284Z,15.89
2019-04-22T18:25:45.050Z,15.83
2019-04-22T18:28:23.864Z,15.64
2019-04-22T18:30:47.767Z,15.55
2019-04-22T18:33:24.319Z,15.48
2019-04-22T18:35:54.230Z,15.39
2019-04-22T18:38:44.392Z,15.43
2019-04-22T18:41:02.393Z,15.51
2019-04-22T18:43:42.293Z,15.45
2019-04-22T18:46:27.012Z,15.34
2019-04-22T18:48:46.424Z,15.24
2019-04-22T18:51:29.412Z,15.09
2019-04-22T18:54:05.077Z,14.94
2019-04-22T18:56:32.476Z,14.77
2019-04-22T18:58:59.492Z,14.63
2019-04-22T19:01:23.844Z,14.50
2019-04-22T19:04:05.739Z,14.44
2019-04-22T19:06:50.213Z,14.34
2019-04-22T19:09:29.514Z,14.22
2019-04-22T19:12:08.743Z,14.17
2019-04-22T19:14:35.602Z,14.05
2019-04-22T19:17:12.007Z,13.97
2019-04-22T19:19:56.422Z,13.88
2019-04-22T19:22:09.723Z,13.79
2019-04-22T19:24:39.484Z,13.72
2019-04-22T19:27:15.588Z,13.65
2019-04-22T19:29:54.764Z,13.58
2019-04-22T19:32:29.601Z,13.56
2019-04-22T19:34:53.114Z,13.48
2019-04-22T19:37:29.952Z,13.40
2019-04-22T19:40:10.465Z,13.31
2019-04-22T19:42:43.129Z,13.30
2019-04-22T19:45:10.723Z,13.25
2019-04-22T19:47:50.289Z,13.23
2019-04-22T19:50:23.178Z,13.22
2019-04-22T19:52:53.230Z,13.15
2019-04-22T19:55:29.478Z,13.14
2019-04-22T19:58:00.086Z,13.14
2019-04-22T20:00:37.439Z,13.11
2019-04-22T20:03:29.026Z,13.08
2019-04-22T20:06:16.074Z,13.03
2019-04-22T20:08:51.755Z,12.99
2019-04-22T20:11:26.563Z,12.93
2019-04-22T20:13:59.930Z,12.88
2019-04-22T20:16:25.243Z,12.83
2019-04-22T20:19:10.477Z,12.76
2019-04-22T20:21:36.791Z,12.73
2019-04-22T20:23:57.395Z,12.69
2019-04-22T20:26:45.534Z,12.71
2019-04-22T20:29:21.045Z,12.69
2019-04-22T20:31:49.685Z,12.64
2019-04-22T20:34:25.069Z,12.57
2019-04-22T20:39:34.638Z,12.41
2019-04-22T20:42:19.448Z,12.50
2019-04-22T20:44:39.755Z,12.63
2019-04-22T20:47:10.579Z,12.62
2019-04-22T20:49:48.802Z,12.60
2019-04-22T20:52:26.434Z,12.53
2019-04-22T20:54:50.991Z,12.46
2019-04-22T20:57:23.982Z,12.45
2019-04-22T20:59:57.644Z,12.41
2019-04-22T21:02:23.877Z,12.33
2019-04-22T21:04:54.607Z,12.28
2019-04-22T21:07:31.363Z,12.21
2019-04-22T21:10:08.366Z,12.14
2019-04-22T21:12:36.637Z,12.08
2019-04-22T21:15:26.751Z,12.03
2019-04-22T21:17:53.353Z,11.99
2019-04-22T21:20:34.781Z,11.99
2019-04-22T21:23:04.189Z,11.93
2019-04-22T21:25:25.271Z,11.85
2019-04-22T21:28:16.305Z,11.79
2019-04-22T21:30:43.427Z,11.71
2019-04-22T21:33:13.470Z,11.64
2019-04-22T21:36:03.124Z,11.57
2019-04-22T21:38:26.658Z,11.53
2019-04-22T21:40:55.097Z,11.50
2019-04-22T21:43:33.953Z,11.48
2019-04-22T21:46:10.447Z,11.44
2019-04-22T21:48:57.957Z,11.36
2019-04-22T21:51:10.787Z,11.33
2019-04-22T21:53:51.598Z,11.28
2019-04-22T21:56:40.783Z,11.23
2019-04-22T21:58:55.969Z,11.21
2019-04-22T22:01:41.473Z,11.15
2019-04-22T22:04:12.848Z,11.12
2019-04-22T22:06:37.018Z,11.28
2019-04-22T22:09:23.138Z,11.23
2019-04-22T22:11:49.493Z,11.16
2019-04-22T22:14:22.410Z,11.10
2019-04-22T22:16:50.248Z,11.12
2019-04-22T22:19:28.345Z,11.08
2019-04-22T22:22:05.963Z,11.07
2019-04-22T22:24:38.658Z,11.09
2019-04-22T22:27:10.995Z,11.17
2019-04-22T22:30:05.634Z,11.20
2019-04-22T22:32:19.963Z,11.20
2019-04-22T22:34:50.798Z,11.14
2019-04-22T22:37:14.380Z,11.55
2019-04-22T22:39:50.450Z,11.60
2019-04-22T22:42:21.377Z,11.49
2019-04-22T22:44:48.475Z,11.43
2019-04-22T22:47:38.335Z,11.32
2019-04-22T22:50:09.349Z,11.31
2019-04-22T22:53:03.066Z,11.28
2019-04-22T22:55:18.019Z,11.20
2019-04-22T22:57:50.075Z,11.17
2019-04-22T23:00:25.814Z,11.13
2019-04-22T23:03:23.077Z,11.10
2019-04-22T23:05:37.720Z,11.05
2019-04-22T23:08:16.593Z,10.99
2019-04-22T23:10:57.442Z,10.98
2019-04-22T23:13:22.057Z,10.91
2019-04-22T23:15:48.782Z,10.68
2019-04-22T23:18:05.897Z,10.71
2019-04-22T23:20:43.294Z,10.75
2019-04-22T23:23:33.039Z,10.82
2019-04-22T23:26:04.575Z,10.84
2019-04-22T23:28:34.994Z,10.79
2019-04-22T23:31:10.852Z,10.75
2019-04-22T23:33:54.637Z,10.69
2019-04-22T23:36:22.862Z,10.64
2019-04-22T23:39:03.733Z,10.49
2019-04-22T23:44:16.007Z,10.48
2019-04-22T23:46:41.195Z,10.40
2019-04-22T23:49:20.397Z,10.43
2019-04-22T23:52:07.242Z,10.42
2019-04-22T23:54:31.576Z,10.38
2019-04-22T23:56:57.027Z,10.22
2019-04-22T23:59:43.064Z,10.22
